createdAt,value
2023-03-01T00:01:44.719Z,36.70
2023-03-01T00:04:15.081Z,29.70
2023-03-01T00:06:47.136Z,35.28
2023-03-01T00:09:15.430Z,26.25
2023-03-01T00:11:43.022Z,38.75
2023-03-01T00:14:10.305Z,32.63
2023-03-01T00:16:41.929Z,24.15
2023-03-01T00:19:15.446Z,26.05
2023-03-01T00:21:42.806Z,32.95
2023-03-01T00:24:10.231Z,25.90
2023-03-01T00:26:37.621Z,25.05
2023-03-01T00:29:05.156Z,26.27
2023-03-01T00:31:33.711Z,28.83
2023-03-01T00:34:03.601Z,25.05
2023-03-01T00:36:36.415Z,25.98
2023-03-01T00:39:10.910Z,24.63
2023-03-01T00:41:38.157Z,21.17
2023-03-01T00:44:05.454Z,18.55
2023-03-01T00:46:35.267Z,27.10
2023-03-01T00:49:03.348Z,24.35
2023-03-01T00:51:31.313Z,26.17
2023-03-01T00:54:00.305Z,20.40
2023-03-01T00:56:28.436Z,21.23
2023-03-01T00:58:55.859Z,20.75
2023-03-01T01:01:28.246Z,25.17
2023-03-01T01:03:58.250Z,19.25
2023-03-01T01:06:48.047Z,26.00
2023-03-01T01:09:20.408Z,20.25
2023-03-01T01:11:48.963Z,20.30
2023-03-01T01:14:17.040Z,25.25
2023-03-01T01:16:44.832Z,24.00
2023-03-01T01:19:15.760Z,19.35
2023-03-01T01:21:46.001Z,21.98
2023-03-01T01:24:13.648Z,25.60
2023-03-01T01:26:41.066Z,24.02
2023-03-01T01:29:08.478Z,23.60
2023-03-01T01:31:36.733Z,23.17
2023-03-01T01:34:04.896Z,26.35
2023-03-01T01:36:32.947Z,28.60
2023-03-01T01:39:00.409Z,31.65
2023-03-01T01:41:28.528Z,25.27
2023-03-01T01:44:15.162Z,19.20
2023-03-01T01:47:05.249Z,23.83
2023-03-01T01:49:39.154Z,20.83
2023-03-01T01:52:17.838Z,18.65
2023-03-01T01:55:13.089Z,22.42
2023-03-01T01:57:46.036Z,22.58
2023-03-01T02:00:22.777Z,18.65
2023-03-01T02:02:55.949Z,19.83
2023-03-01T02:05:55.434Z,19.67
2023-03-01T02:08:24.835Z,21.40
2023-03-01T02:10:52.059Z,15.55
2023-03-01T02:13:20.692Z,20.98
2023-03-01T02:15:48.451Z,24.42
2023-03-01T02:18:22.018Z,23.58
2023-03-01T02:21:07.072Z,21.02
2023-03-01T02:23:34.319Z,18.92
2023-03-01T02:26:42.437Z,15.90
2023-03-01T02:29:09.684Z,17.33
2023-03-01T02:31:45.867Z,21.38
2023-03-01T02:34:21.568Z,20.70
2023-03-01T02:37:10.551Z,14.18
2023-03-01T02:39:43.061Z,12.68
2023-03-01T02:42:26.193Z,16.38
2023-03-01T02:44:55.048Z,19.20
2023-03-01T02:47:22.357Z,21.23
2023-03-01T02:49:50.041Z,14.60
2023-03-01T02:52:41.021Z,16.65
2023-03-01T02:55:14.067Z,12.80
2023-03-01T02:57:44.045Z,17.00
2023-03-01T03:00:24.567Z,11.75
2023-03-01T03:02:53.096Z,12.90
2023-03-01T03:05:22.248Z,14.88
2023-03-01T03:07:53.218Z,15.93
2023-03-01T03:10:26.540Z,20.85
2023-03-01T03:12:57.258Z,25.98
2023-03-01T03:15:25.934Z,19.15
2023-03-01T03:17:53.653Z,23.85
2023-03-01T03:20:22.697Z,30.63
2023-03-01T03:22:52.140Z,27.08
2023-03-01T03:25:19.511Z,23.15
2023-03-01T03:27:48.156Z,28.05
2023-03-01T03:30:18.239Z,19.55
2023-03-01T03:32:54.349Z,20.17
2023-03-01T03:35:35.536Z,19.92
2023-03-01T03:38:07.415Z,21.45
2023-03-01T03:40:35.452Z,16.42
2023-03-01T03:43:04.088Z,25.48
2023-03-01T03:45:37.458Z,16.80
2023-03-01T03:48:06.472Z,20.10
2023-03-01T03:50:33.859Z,22.02
2023-03-01T03:53:02.445Z,18.60
2023-03-01T03:55:31.671Z,21.65
2023-03-01T03:58:02.390Z,17.52
2023-03-01T04:00:29.820Z,22.60
2023-03-01T04:02:57.582Z,15.50
2023-03-01T04:05:25.097Z,17.27
2023-03-01T04:08:02.010Z,15.15
2023-03-01T04:10:31.458Z,13.23
2023-03-01T04:12:59.169Z,17.90
2023-03-01T04:15:26.930Z,13.95
2023-03-01T04:17:54.634Z,15.48
2023-03-01T04:20:26.991Z,16.50
2023-03-01T04:23:00.750Z,19.13
2023-03-01T04:25:28.035Z,14.35
2023-03-01T04:27:55.312Z,16.38
2023-03-01T04:30:26.415Z,13.52
2023-03-01T04:32:54.302Z,13.77
2023-03-01T04:35:21.737Z,12.95
2023-03-01T04:37:48.936Z,15.15
2023-03-01T04:40:17.628Z,12.02
2023-03-01T04:42:44.873Z,14.48
2023-03-01T04:45:15.032Z,16.10
2023-03-01T04:47:46.948Z,12.68
2023-03-01T04:50:16.963Z,10.82
2023-03-01T04:52:44.858Z,15.27
2023-03-01T04:55:12.305Z,13.25
2023-03-01T04:57:40.543Z,15.48
2023-03-01T05:00:23.364Z,15.95
2023-03-01T05:05:26.663Z,11.90
2023-03-01T05:08:18.311Z,16.58
2023-03-01T05:10:50.056Z,15.80
2023-03-01T05:13:22.007Z,16.38
2023-03-01T05:15:56.752Z,16.70
2023-03-01T05:18:27.562Z,14.60
2023-03-01T05:20:57.294Z,11.38
2023-03-01T05:23:25.455Z,17.60
2023-03-01T05:25:53.489Z,16.45
2023-03-01T05:28:21.152Z,13.55
2023-03-01T05:30:48.459Z,22.80
2023-03-01T05:33:15.981Z,17.75
2023-03-01T05:35:43.873Z,17.05
2023-03-01T05:38:14.214Z,15.60
2023-03-01T05:40:45.360Z,19.55
2023-03-01T05:43:13.722Z,15.95
2023-03-01T05:45:43.249Z,14.52
2023-03-01T05:48:11.174Z,13.20
2023-03-01T05:50:40.345Z,12.60
2023-03-01T05:53:10.780Z,17.27
2023-03-01T05:55:38.188Z,12.75
2023-03-01T05:58:07.064Z,12.90
2023-03-01T06:00:35.759Z,13.80
2023-03-01T06:03:05.063Z,17.27
2023-03-01T06:05:33.912Z,13.52
2023-03-01T06:08:01.728Z,17.23
2023-03-01T06:10:29.068Z,15.90
2023-03-01T06:12:56.466Z,17.50
2023-03-01T06:15:31.449Z,11.77
2023-03-01T06:18:00.305Z,15.32
2023-03-01T06:20:28.630Z,13.43
2023-03-01T06:22:57.063Z,13.55
2023-03-01T06:25:25.739Z,17.88
2023-03-01T06:27:55.963Z,11.93
2023-03-01T06:30:24.323Z,11.75
2023-03-01T06:32:53.781Z,21.20
2023-03-01T06:35:21.180Z,14.05
2023-03-01T06:37:48.899Z,12.63
2023-03-01T06:40:16.387Z,17.10
2023-03-01T06:42:45.371Z,12.75
2023-03-01T06:45:13.961Z,12.52
2023-03-01T06:47:41.494Z,16.00
2023-03-01T06:50:09.504Z,17.95
2023-03-01T06:52:36.842Z,15.50
2023-03-01T06:55:05.674Z,15.00
2023-03-01T06:57:32.907Z,17.13
2023-03-01T07:00:00.256Z,14.48
2023-03-01T07:02:27.576Z,13.82
2023-03-01T07:04:55.050Z,15.50
2023-03-01T07:07:22.305Z,20.63
2023-03-01T07:09:50.474Z,15.35
2023-03-01T07:12:17.956Z,20.23
2023-03-01T07:14:45.274Z,17.80
2023-03-01T07:17:12.593Z,16.42
2023-03-01T07:19:39.975Z,18.33
2023-03-01T07:22:08.962Z,12.15
2023-03-01T07:24:36.397Z,11.73
2023-03-01T07:27:03.723Z,16.77
2023-03-01T07:29:32.293Z,11.30
2023-03-01T07:32:00.946Z,9.77
2023-03-01T07:34:28.556Z,12.07
2023-03-01T07:36:56.386Z,12.57
2023-03-01T07:39:26.537Z,15.40
2023-03-01T07:41:53.869Z,10.07
2023-03-01T07:44:21.223Z,12.65
2023-03-01T07:46:48.791Z,13.30
2023-03-01T07:49:16.134Z,14.23
2023-03-01T07:51:44.516Z,10.80
2023-03-01T07:54:12.601Z,11.25
2023-03-01T07:56:41.733Z,13.80
2023-03-01T07:59:09.056Z,12.52
2023-03-01T08:01:36.641Z,19.02
2023-03-01T08:04:05.755Z,11.63
2023-03-01T08:06:35.503Z,11.23
2023-03-01T08:09:03.229Z,10.80
2023-03-01T08:11:31.376Z,13.32
2023-03-01T08:14:18.518Z,11.95
2023-03-01T08:16:50.518Z,13.10
2023-03-01T08:19:17.821Z,16.48
2023-03-01T08:21:45.140Z,21.70
2023-03-01T08:24:14.812Z,14.27
2023-03-01T08:26:42.560Z,13.20
2023-03-01T08:29:14.551Z,13.35
2023-03-01T08:31:42.168Z,17.70
2023-03-01T08:34:11.335Z,14.95
2023-03-01T08:36:43.203Z,19.08
2023-03-01T08:39:11.940Z,14.07
2023-03-01T08:41:39.435Z,14.98
2023-03-01T08:44:07.003Z,9.85
2023-03-01T08:46:38.132Z,13.10
2023-03-01T08:49:09.606Z,12.75
2023-03-01T08:51:37.909Z,16.40
2023-03-01T08:54:05.949Z,15.65
2023-03-01T08:56:34.704Z,16.08
2023-03-01T08:59:02.004Z,10.60
2023-03-01T09:01:29.654Z,12.73
2023-03-01T09:03:56.941Z,10.85
2023-03-01T09:06:32.304Z,14.00
2023-03-01T09:08:59.762Z,10.95
2023-03-01T09:11:27.654Z,11.15
2023-03-01T09:13:56.708Z,11.40
2023-03-01T09:16:25.232Z,12.13
2023-03-01T09:18:53.445Z,13.23
2023-03-01T09:21:38.634Z,10.35
2023-03-01T09:24:07.315Z,12.88
2023-03-01T09:26:34.575Z,11.60
2023-03-01T09:29:02.118Z,11.75
2023-03-01T09:31:29.616Z,8.85
2023-03-01T09:33:56.990Z,12.50
2023-03-01T09:36:26.264Z,8.93
2023-03-01T09:38:54.321Z,10.50
2023-03-01T09:41:46.817Z,11.00
2023-03-01T09:44:28.251Z,11.20
2023-03-01T09:46:58.102Z,11.57
2023-03-01T09:49:27.472Z,9.73
2023-03-01T09:52:14.817Z,8.23
2023-03-01T09:54:42.091Z,10.25
2023-03-01T09:57:39.794Z,7.68
2023-03-01T10:00:13.314Z,9.38
2023-03-01T10:03:14.617Z,9.52
2023-03-01T10:05:56.778Z,9.65
2023-03-01T10:09:03.731Z,8.93
2023-03-01T10:11:38.421Z,10.10
2023-03-01T10:14:24.478Z,14.00
2023-03-01T10:16:53.670Z,8.88
2023-03-01T10:19:32.706Z,8.82
2023-03-01T10:22:22.178Z,16.25
2023-03-01T10:24:52.267Z,10.25
2023-03-01T10:27:35.873Z,12.50
2023-03-01T10:30:17.677Z,12.38
2023-03-01T10:32:45.490Z,14.43
2023-03-01T10:35:24.601Z,20.17
2023-03-01T10:38:18.092Z,23.67
2023-03-01T10:40:53.943Z,21.25
2023-03-01T10:43:22.545Z,16.60
2023-03-01T10:45:49.832Z,18.50
2023-03-01T10:48:27.210Z,20.27
2023-03-01T10:51:00.426Z,18.15
2023-03-01T10:53:39.207Z,12.27
2023-03-01T10:56:08.111Z,15.80
2023-03-01T10:58:36.526Z,14.38
2023-03-01T11:01:15.770Z,15.18
2023-03-01T11:03:43.433Z,11.98
2023-03-01T11:06:13.697Z,16.85
2023-03-01T11:08:48.582Z,12.20
2023-03-01T11:11:22.894Z,9.73
2023-03-01T11:14:27.950Z,10.05
2023-03-01T11:17:01.323Z,8.57
2023-03-01T11:22:04.954Z,10.43
2023-03-01T11:24:35.443Z,8.98
2023-03-01T11:27:04.583Z,12.27
2023-03-01T11:29:47.767Z,8.30
2023-03-01T11:32:15.763Z,10.98
2023-03-01T11:34:57.113Z,11.57
2023-03-01T11:37:37.018Z,9.57
2023-03-01T11:40:17.210Z,6.93
2023-03-01T11:42:54.735Z,13.30
2023-03-01T11:45:23.726Z,6.53
2023-03-01T11:47:53.968Z,8.82
2023-03-01T11:50:29.967Z,8.38
2023-03-01T11:53:09.342Z,11.13
2023-03-01T11:55:56.847Z,8.75
2023-03-01T11:58:46.885Z,9.35
2023-03-01T12:01:46.121Z,9.60
2023-03-01T12:04:38.508Z,8.50
2023-03-01T12:07:13.692Z,10.85
2023-03-01T12:10:27.557Z,9.70
2023-03-01T12:12:54.706Z,8.65
2023-03-01T12:15:31.422Z,9.77
2023-03-01T12:18:18.390Z,12.25
2023-03-01T12:20:57.815Z,18.45
2023-03-01T12:23:35.793Z,9.73
2023-03-01T12:26:09.397Z,9.98
2023-03-01T12:28:49.215Z,11.30
2023-03-01T12:31:31.388Z,10.27
2023-03-01T12:34:37.264Z,13.77
2023-03-01T12:37:13.983Z,18.50
2023-03-01T12:39:46.845Z,12.25
2023-03-01T12:42:16.882Z,15.30
2023-03-01T12:44:58.416Z,16.17
2023-03-01T12:47:48.819Z,11.93
2023-03-01T12:50:22.898Z,15.77
2023-03-01T12:52:59.452Z,15.93
2023-03-01T12:55:38.944Z,15.10
2023-03-01T12:58:47.205Z,13.88
2023-03-01T13:01:42.052Z,12.73
2023-03-01T13:04:37.842Z,17.17
2023-03-01T13:07:30.325Z,13.23
2023-03-01T13:10:19.418Z,15.85
2023-03-01T13:12:50.486Z,12.27
2023-03-01T13:15:23.903Z,12.20
2023-03-01T13:18:23.984Z,12.93
2023-03-01T13:20:52.595Z,15.07
2023-03-01T13:23:23.923Z,18.55
2023-03-01T13:25:59.898Z,12.68
2023-03-01T13:28:32.877Z,18.10
2023-03-01T13:31:00.128Z,14.20
2023-03-01T13:33:29.863Z,15.55
2023-03-01T13:35:58.643Z,13.57
2023-03-01T13:38:44.550Z,16.52
2023-03-01T13:41:39.619Z,16.67
2023-03-01T13:44:37.090Z,14.05
2023-03-01T13:47:07.468Z,18.65
2023-03-01T13:49:46.641Z,17.88
2023-03-01T13:52:40.540Z,17.25
2023-03-01T13:55:14.891Z,15.25
2023-03-01T13:57:44.276Z,18.77
2023-03-01T14:00:38.002Z,19.30
2023-03-01T14:03:34.549Z,16.20
2023-03-01T14:06:14.625Z,14.63
2023-03-01T14:08:43.154Z,14.05
2023-03-01T14:11:46.964Z,13.43
2023-03-01T14:14:26.982Z,17.40
2023-03-01T14:17:21.761Z,17.55
2023-03-01T14:19:49.243Z,19.25
2023-03-01T14:22:25.798Z,17.95
2023-03-01T14:25:02.427Z,13.35
2023-03-01T14:27:42.893Z,15.55
2023-03-01T14:30:20.334Z,13.25
2023-03-01T14:32:58.135Z,15.30
2023-03-01T14:35:28.338Z,15.45
2023-03-01T14:37:55.773Z,13.30
2023-03-01T14:40:24.980Z,16.73
2023-03-01T14:42:52.304Z,12.00
2023-03-01T14:45:28.124Z,14.55
2023-03-01T14:47:56.742Z,13.55
2023-03-01T14:50:42.726Z,12.20
2023-03-01T14:53:25.168Z,11.55
2023-03-01T14:55:56.230Z,16.75
2023-03-01T14:58:25.164Z,15.55
2023-03-01T15:00:55.417Z,12.55
2023-03-01T15:03:35.977Z,18.40
2023-03-01T15:06:03.291Z,20.13
2023-03-01T15:08:34.026Z,15.13
2023-03-01T15:11:09.024Z,13.10
2023-03-01T15:13:37.041Z,19.05
2023-03-01T15:16:12.299Z,11.32
2023-03-01T15:19:00.098Z,13.43
2023-03-01T15:21:32.180Z,20.05
2023-03-01T15:24:05.632Z,23.52
2023-03-01T15:26:44.129Z,29.15
2023-03-01T15:29:22.581Z,25.52
2023-03-01T15:32:01.012Z,26.65
2023-03-01T15:34:35.572Z,29.90
2023-03-01T15:37:06.768Z,33.45
2023-03-01T15:39:44.743Z,30.52
2023-03-01T15:42:45.241Z,26.63
2023-03-01T15:45:18.507Z,28.45
2023-03-01T15:47:49.878Z,28.73
2023-03-01T15:50:28.133Z,18.38
2023-03-01T15:52:56.293Z,19.67
2023-03-01T15:55:30.072Z,15.88
2023-03-01T15:58:25.227Z,13.95
2023-03-01T16:01:01.539Z,11.02
2023-03-01T16:03:29.739Z,15.30
2023-03-01T16:05:57.051Z,11.13
2023-03-01T16:08:24.477Z,12.63
2023-03-01T16:10:54.622Z,13.02
2023-03-01T16:13:22.764Z,14.63
2023-03-01T16:15:50.029Z,14.27
2023-03-01T16:18:17.350Z,11.27
2023-03-01T16:20:44.913Z,18.52
2023-03-01T16:23:17.978Z,16.63
2023-03-01T16:25:45.969Z,16.60
2023-03-01T16:28:15.166Z,18.60
2023-03-01T16:30:48.234Z,13.93
2023-03-01T16:33:26.446Z,17.63
2023-03-01T16:36:01.233Z,20.27
2023-03-01T16:38:29.657Z,15.23
2023-03-01T16:40:56.919Z,13.98
2023-03-01T16:43:24.566Z,15.65
2023-03-01T16:45:52.265Z,10.20
2023-03-01T16:48:19.710Z,17.40
2023-03-01T16:50:56.652Z,12.65
2023-03-01T16:53:45.621Z,14.75
2023-03-01T16:56:13.663Z,17.40
2023-03-01T16:58:41.110Z,13.23
2023-03-01T17:01:10.240Z,12.93
2023-03-01T17:03:37.678Z,19.38
2023-03-01T17:06:06.156Z,15.23
2023-03-01T17:08:34.583Z,16.38
2023-03-01T17:11:18.897Z,18.02
2023-03-01T17:13:56.502Z,17.63
2023-03-01T17:16:24.422Z,18.48
2023-03-01T17:18:51.703Z,12.30
2023-03-01T17:21:19.006Z,18.02
2023-03-01T17:23:47.154Z,17.52
2023-03-01T17:26:16.243Z,14.80
2023-03-01T17:28:44.107Z,15.27
2023-03-01T17:31:11.445Z,15.15
2023-03-01T17:33:38.967Z,19.52
2023-03-01T17:36:06.482Z,17.90
2023-03-01T17:38:33.930Z,20.48
2023-03-01T17:41:02.165Z,19.10
2023-03-01T17:43:36.040Z,17.48
2023-03-01T17:46:03.627Z,16.73
2023-03-01T17:48:31.016Z,19.88
2023-03-01T17:51:18.704Z,16.75
2023-03-01T17:53:46.290Z,25.67
2023-03-01T17:56:13.658Z,16.60
2023-03-01T17:58:40.942Z,17.75
2023-03-01T18:01:16.609Z,17.48
2023-03-01T18:03:47.730Z,12.32
2023-03-01T18:06:22.890Z,15.07
2023-03-01T18:08:52.310Z,17.40
2023-03-01T18:11:25.826Z,15.85
2023-03-01T18:13:55.338Z,16.25
2023-03-01T18:16:22.995Z,14.50
2023-03-01T18:18:54.182Z,16.77
2023-03-01T18:21:22.952Z,16.20
2023-03-01T18:23:50.212Z,15.35
2023-03-01T18:26:19.641Z,19.20
2023-03-01T18:28:50.823Z,15.30
2023-03-01T18:33:51.790Z,18.83
2023-03-01T18:36:26.820Z,19.48
2023-03-01T18:38:56.201Z,15.45
2023-03-01T18:41:25.180Z,16.58
2023-03-01T18:43:53.477Z,18.85
2023-03-01T18:46:21.058Z,16.10
2023-03-01T18:48:49.236Z,14.32
2023-03-01T18:51:27.201Z,17.33
2023-03-01T18:53:59.398Z,16.42
2023-03-01T18:56:29.532Z,17.58
2023-03-01T18:58:57.589Z,16.42
2023-03-01T19:01:25.978Z,14.00
2023-03-01T19:03:53.434Z,14.27
2023-03-01T19:06:20.721Z,12.65
2023-03-01T19:08:48.121Z,17.13
2023-03-01T19:11:17.717Z,13.07
2023-03-01T19:13:45.899Z,11.75
2023-03-01T19:16:18.605Z,13.73
2023-03-01T19:18:54.576Z,20.25
2023-03-01T19:21:23.052Z,20.77
2023-03-01T19:23:51.819Z,16.67
2023-03-01T19:26:21.356Z,20.95
2023-03-01T19:28:48.654Z,18.73
2023-03-01T19:31:25.668Z,23.42
2023-03-01T19:33:59.470Z,19.20
2023-03-01T19:36:33.841Z,19.83
2023-03-01T19:39:02.529Z,17.38
2023-03-01T19:41:33.598Z,21.52
2023-03-01T19:44:04.609Z,16.55
2023-03-01T19:46:33.644Z,20.92
2023-03-01T19:49:03.072Z,22.63
2023-03-01T19:51:33.372Z,29.73
2023-03-01T19:54:00.750Z,22.20
2023-03-01T19:56:28.111Z,18.08
2023-03-01T19:59:00.716Z,21.50
2023-03-01T20:01:32.990Z,18.58
2023-03-01T20:04:01.580Z,21.48
2023-03-01T20:06:30.283Z,18.20
2023-03-01T20:08:58.653Z,19.30
2023-03-01T20:11:26.059Z,19.08
2023-03-01T20:13:53.375Z,14.85
2023-03-01T20:16:23.056Z,18.73
2023-03-01T20:18:50.341Z,23.85
2023-03-01T20:21:24.048Z,16.85
2023-03-01T20:23:52.243Z,19.95
2023-03-01T20:26:20.497Z,20.23
2023-03-01T20:28:48.698Z,17.98
2023-03-01T20:31:16.842Z,17.52
2023-03-01T20:33:46.226Z,18.67
2023-03-01T20:36:14.555Z,21.42
2023-03-01T20:38:42.134Z,17.23
2023-03-01T20:41:11.399Z,20.20
2023-03-01T20:43:42.105Z,17.48
2023-03-01T20:46:13.154Z,24.65
2023-03-01T20:48:43.087Z,21.55
2023-03-01T20:51:11.321Z,20.48
2023-03-01T20:56:11.379Z,19.98
2023-03-01T20:58:39.705Z,18.52
2023-03-01T21:01:07.485Z,18.10
2023-03-01T21:03:35.148Z,17.15
2023-03-01T21:06:03.990Z,19.13
2023-03-01T21:08:34.686Z,17.30
2023-03-01T21:11:06.345Z,24.55
2023-03-01T21:13:35.050Z,20.35
2023-03-01T21:16:04.973Z,24.65
2023-03-01T21:18:38.198Z,18.00
2023-03-01T21:21:10.584Z,18.50
2023-03-01T21:23:39.596Z,21.15
2023-03-01T21:26:12.040Z,15.32
2023-03-01T21:28:39.585Z,16.00
2023-03-01T21:31:14.029Z,16.48
2023-03-01T21:33:44.510Z,12.10
2023-03-01T21:36:12.943Z,17.73
2023-03-01T21:38:41.944Z,15.50
2023-03-01T21:41:17.519Z,18.42
2023-03-01T21:43:46.954Z,21.20
2023-03-01T21:46:16.599Z,19.30
2023-03-01T21:48:45.846Z,18.92
2023-03-01T21:51:14.911Z,25.45
2023-03-01T21:53:42.702Z,19.98
2023-03-01T21:56:10.453Z,15.73
2023-03-01T21:58:37.737Z,16.05
2023-03-01T22:01:10.013Z,18.58
2023-03-01T22:03:45.431Z,16.50
2023-03-01T22:06:20.621Z,21.80
2023-03-01T22:08:50.196Z,12.25
2023-03-01T22:11:18.695Z,14.98
2023-03-01T22:13:49.333Z,16.55
2023-03-01T22:16:16.861Z,12.45
2023-03-01T22:18:44.393Z,13.23
2023-03-01T22:21:11.976Z,11.60
2023-03-01T22:23:41.442Z,14.63
2023-03-01T22:26:09.340Z,13.02
2023-03-01T22:28:36.667Z,15.68
2023-03-01T22:31:06.932Z,16.33
2023-03-01T22:33:34.242Z,16.03
2023-03-01T22:36:01.511Z,15.43
2023-03-01T22:38:29.208Z,20.73
2023-03-01T22:40:59.135Z,16.73
2023-03-01T22:43:26.487Z,18.02
2023-03-01T22:45:53.857Z,14.88
2023-03-01T22:48:21.662Z,17.80
2023-03-01T22:50:48.960Z,17.08
2023-03-01T22:53:16.523Z,16.27
2023-03-01T22:55:44.391Z,15.73
2023-03-01T22:58:11.739Z,12.13
2023-03-01T23:00:38.999Z,15.10
2023-03-01T23:03:06.403Z,19.02
2023-03-01T23:05:34.150Z,17.33
2023-03-01T23:08:02.839Z,15.18
2023-03-01T23:10:30.625Z,13.93
2023-03-01T23:12:57.848Z,18.85
2023-03-01T23:15:29.828Z,16.48
2023-03-01T23:17:57.602Z,16.73
2023-03-01T23:20:24.853Z,17.20
2023-03-01T23:22:52.397Z,13.23
2023-03-01T23:25:19.620Z,24.13
2023-03-01T23:27:46.963Z,17.60
2023-03-01T23:30:14.756Z,14.60
2023-03-01T23:32:42.142Z,14.43
2023-03-01T23:35:10.698Z,18.60
2023-03-01T23:37:38.255Z,19.45
2023-03-01T23:40:06.602Z,17.75
2023-03-01T23:42:34.356Z,17.55
2023-03-01T23:45:03.903Z,14.25
2023-03-01T23:47:31.862Z,16.00
2023-03-01T23:50:03.295Z,15.18
2023-03-01T23:52:31.264Z,14.48
2023-03-01T23:54:58.872Z,13.20
2023-03-01T23:57:28.653Z,19.77
2023-03-01T23:59:56.009Z,18.40
